sensor_id;sensor_type;location;lat;lon;timestamp;temperature;humidity
23633;DHT22;11993;48.748;9.166;2023-02-28T00:00:21;-3276.00;58.50
23633;DHT22;11993;48.748;9.166;2023-02-28T00:02:47;-3276.10;58.40
23633;DHT22;11993;48.748;9.166;2023-02-28T00:05:15;-3276.00;58.50
23633;DHT22;11993;48.748;9.166;2023-02-28T00:07:41;-3276.00;58.40
23633;DHT22;11993;48.748;9.166;2023-02-28T00:10:11;-3275.90;58.70
23633;DHT22;11993;48.748;9.166;2023-02-28T00:12:37;-3275.80;59.30
23633;DHT22;11993;48.748;9.166;2023-02-28T00:15:06;-3275.80;59.70
23633;DHT22;11993;48.748;9.166;2023-02-28T00:17:32;-3275.80;59.60
23633;DHT22;11993;48.748;9.166;2023-02-28T00:19:57;-3275.90;59.60
23633;DHT22;11993;48.748;9.166;2023-02-28T00:22:35;-3275.80;59.70
23633;DHT22;11993;48.748;9.166;2023-02-28T00:25:01;-3275.80;59.60
23633;DHT22;11993;48.748;9.166;2023-02-28T00:27:27;-3275.70;60.20
23633;DHT22;11993;48.748;9.166;2023-02-28T00:29:52;-3275.60;60.30
23633;DHT22;11993;48.748;9.166;2023-02-28T00:32:19;-3275.60;60.40
23633;DHT22;11993;48.748;9.166;2023-02-28T00:34:45;-3275.60;60.60
23633;DHT22;11993;48.748;9.166;2023-02-28T00:37:11;-3275.50;61.20
23633;DHT22;11993;48.748;9.166;2023-02-28T00:39:40;-3275.50;61.00
23633;DHT22;11993;48.748;9.166;2023-02-28T00:42:07;-3275.40;61.20
23633;DHT22;11993;48.748;9.166;2023-02-28T00:44:33;-3275.40;61.20
23633;DHT22;11993;48.748;9.166;2023-02-28T00:47:00;-3275.40;61.40
23633;DHT22;11993;48.748;9.166;2023-02-28T00:49:28;-3275.40;61.60
23633;DHT22;11993;48.748;9.166;2023-02-28T00:51:54;-3275.30;61.70
23633;DHT22;11993;48.748;9.166;2023-02-28T00:54:21;-3275.40;61.70
23633;DHT22;11993;48.748;9.166;2023-02-28T00:56:47;-3275.50;61.60
23633;DHT22;11993;48.748;9.166;2023-02-28T00:59:14;-3275.50;61.80
23633;DHT22;11993;48.748;9.166;2023-02-28T01:01:40;-3275.50;61.70
23633;DHT22;11993;48.748;9.166;2023-02-28T01:04:06;-3275.50;61.50
23633;DHT22;11993;48.748;9.166;2023-02-28T01:06:32;-3275.60;61.50
23633;DHT22;11993;48.748;9.166;2023-02-28T01:08:58;-3275.60;61.80
23633;DHT22;11993;48.748;9.166;2023-02-28T01:11:24;-3275.60;61.60
23633;DHT22;11993;48.748;9.166;2023-02-28T01:13:50;-3275.50;62.20
23633;DHT22;11993;48.748;9.166;2023-02-28T01:16:16;-3275.30;62.30
23633;DHT22;11993;48.748;9.166;2023-02-28T01:18:41;-3275.50;62.30
23633;DHT22;11993;48.748;9.166;2023-02-28T01:21:11;-3275.50;62.10
23633;DHT22;11993;48.748;9.166;2023-02-28T01:23:37;-3275.50;62.30
23633;DHT22;11993;48.748;9.166;2023-02-28T01:26:33;-3275.30;63.00
23633;DHT22;11993;48.748;9.166;2023-02-28T01:28:58;-3275.40;63.00
23633;DHT22;11993;48.748;9.166;2023-02-28T01:31:24;-3275.40;63.00
23633;DHT22;11993;48.748;9.166;2023-02-28T01:33:50;-3275.40;63.00
23633;DHT22;11993;48.748;9.166;2023-02-28T01:36:19;-3275.40;63.00
23633;DHT22;11993;48.748;9.166;2023-02-28T01:38:46;-3275.30;63.70
23633;DHT22;11993;48.748;9.166;2023-02-28T01:41:22;-3275.30;63.90
23633;DHT22;11993;48.748;9.166;2023-02-28T01:46:14;-3275.30;63.80
23633;DHT22;11993;48.748;9.166;2023-02-28T01:48:43;-3275.30;63.70
23633;DHT22;11993;48.748;9.166;2023-02-28T01:51:14;-3275.40;63.80
23633;DHT22;11993;48.748;9.166;2023-02-28T01:53:45;-3275.30;64.00
23633;DHT22;11993;48.748;9.166;2023-02-28T01:56:13;-3275.30;64.50
23633;DHT22;11993;48.748;9.166;2023-02-28T01:58:49;-3275.40;64.00
23633;DHT22;11993;48.748;9.166;2023-02-28T02:01:16;-3275.40;64.20
23633;DHT22;11993;48.748;9.166;2023-02-28T02:03:57;-3275.50;63.90
23633;DHT22;11993;48.748;9.166;2023-02-28T02:06:35;-3275.40;64.00
23633;DHT22;11993;48.748;9.166;2023-02-28T02:09:02;-3275.40;64.40
23633;DHT22;11993;48.748;9.166;2023-02-28T02:11:28;-3275.20;65.30
23633;DHT22;11993;48.748;9.166;2023-02-28T02:20:25;-3275.10;65.80
23633;DHT22;11993;48.748;9.166;2023-02-28T02:31:11;-3275.20;66.20
23633;DHT22;11993;48.748;9.166;2023-02-28T02:36:33;-3275.40;65.80
23633;DHT22;11993;48.748;9.166;2023-02-28T02:39:28;-3275.30;66.10
23633;DHT22;11993;48.748;9.166;2023-02-28T02:41:58;-3275.30;66.00
23633;DHT22;11993;48.748;9.166;2023-02-28T02:44:36;-3275.30;66.50
23633;DHT22;11993;48.748;9.166;2023-02-28T02:47:14;-3275.30;66.50
23633;DHT22;11993;48.748;9.166;2023-02-28T02:49:44;-3275.30;66.80
23633;DHT22;11993;48.748;9.166;2023-02-28T02:52:14;-3275.30;66.70
23633;DHT22;11993;48.748;9.166;2023-02-28T02:54:45;-3275.40;66.60
23633;DHT22;11993;48.748;9.166;2023-02-28T02:57:20;-3275.30;66.70
23633;DHT22;11993;48.748;9.166;2023-02-28T02:59:50;-3275.30;66.80
23633;DHT22;11993;48.748;9.166;2023-02-28T03:02:17;-3275.40;66.90
23633;DHT22;11993;48.748;9.166;2023-02-28T03:04:49;-3275.40;67.00
23633;DHT22;11993;48.748;9.166;2023-02-28T03:07:16;-3275.30;67.40
23633;DHT22;11993;48.748;9.166;2023-02-28T03:09:53;-3275.20;67.70
23633;DHT22;11993;48.748;9.166;2023-02-28T03:12:20;-3275.10;68.50
23633;DHT22;11993;48.748;9.166;2023-02-28T03:15:04;-3275.20;68.30
23633;DHT22;11993;48.748;9.166;2023-02-28T03:17:47;-3275.30;68.30
23633;DHT22;11993;48.748;9.166;2023-02-28T03:20:35;-3275.30;68.40
23633;DHT22;11993;48.748;9.166;2023-02-28T03:23:22;-3275.30;68.20
23633;DHT22;11993;48.748;9.166;2023-02-28T03:26:25;-3275.20;68.40
23633;DHT22;11993;48.748;9.166;2023-02-28T03:31:48;-3275.30;68.90
23633;DHT22;11993;48.748;9.166;2023-02-28T03:34:34;-3275.30;68.70
23633;DHT22;11993;48.748;9.166;2023-02-28T03:37:06;-3275.30;69.10
23633;DHT22;11993;48.748;9.166;2023-02-28T03:39:47;-3275.40;69.00
23633;DHT22;11993;48.748;9.166;2023-02-28T03:42:15;-3275.30;69.70
23633;DHT22;11993;48.748;9.166;2023-02-28T03:44:45;-3275.20;69.80
23633;DHT22;11993;48.748;9.166;2023-02-28T03:50:25;-3275.40;69.50
23633;DHT22;11993;48.748;9.166;2023-02-28T03:53:04;-3275.50;69.10
23633;DHT22;11993;48.748;9.166;2023-02-28T03:55:38;-3275.30;69.60
23633;DHT22;11993;48.748;9.166;2023-02-28T04:01:22;-3275.60;69.20
23633;DHT22;11993;48.748;9.166;2023-02-28T04:03:49;-3275.60;69.00
23633;DHT22;11993;48.748;9.166;2023-02-28T04:06:18;-3275.60;69.50
23633;DHT22;11993;48.748;9.166;2023-02-28T04:08:45;-3275.60;69.10
23633;DHT22;11993;48.748;9.166;2023-02-28T04:11:24;-3275.70;69.10
23633;DHT22;11993;48.748;9.166;2023-02-28T04:13:53;-3275.60;68.80
23633;DHT22;11993;48.748;9.166;2023-02-28T04:16:18;-3275.60;69.20
23633;DHT22;11993;48.748;9.166;2023-02-28T04:18:44;-3275.60;69.20
23633;DHT22;11993;48.748;9.166;2023-02-28T04:21:10;-3275.60;69.30
23633;DHT22;11993;48.748;9.166;2023-02-28T04:23:36;-3275.70;69.30
23633;DHT22;11993;48.748;9.166;2023-02-28T04:26:01;-3275.60;69.10
23633;DHT22;11993;48.748;9.166;2023-02-28T04:28:27;-3275.60;69.20
23633;DHT22;11993;48.748;9.166;2023-02-28T04:31:01;-3275.60;69.40
23633;DHT22;11993;48.748;9.166;2023-02-28T04:33:28;-3275.60;69.50
23633;DHT22;11993;48.748;9.166;2023-02-28T04:36:08;-3275.70;69.40
23633;DHT22;11993;48.748;9.166;2023-02-28T04:38:36;-3275.60;69.60
23633;DHT22;11993;48.748;9.166;2023-02-28T04:41:02;-3275.70;69.50
23633;DHT22;11993;48.748;9.166;2023-02-28T04:43:28;-3275.80;69.20
23633;DHT22;11993;48.748;9.166;2023-02-28T04:45:55;-3275.80;68.90
23633;DHT22;11993;48.748;9.166;2023-02-28T04:48:25;-3275.80;68.80
23633;DHT22;11993;48.748;9.166;2023-02-28T04:50:51;-3275.70;69.40
23633;DHT22;11993;48.748;9.166;2023-02-28T04:53:17;-3275.80;69.50
23633;DHT22;11993;48.748;9.166;2023-02-28T04:55:43;-3275.70;69.40
23633;DHT22;11993;48.748;9.166;2023-02-28T04:58:09;-3275.70;69.80
23633;DHT22;11993;48.748;9.166;2023-02-28T05:00:35;-3275.70;69.50
23633;DHT22;11993;48.748;9.166;2023-02-28T05:03:00;-3275.80;69.50
23633;DHT22;11993;48.748;9.166;2023-02-28T05:05:26;-3275.60;69.40
23633;DHT22;11993;48.748;9.166;2023-02-28T05:07:51;-3275.60;69.80
23633;DHT22;11993;48.748;9.166;2023-02-28T05:10:19;-3275.70;69.50
23633;DHT22;11993;48.748;9.166;2023-02-28T05:12:45;-3275.90;69.20
23633;DHT22;11993;48.748;9.166;2023-02-28T05:15:15;-3275.90;69.20
23633;DHT22;11993;48.748;9.166;2023-02-28T05:17:41;-3275.60;69.60
23633;DHT22;11993;48.748;9.166;2023-02-28T05:20:07;-3275.50;70.00
23633;DHT22;11993;48.748;9.166;2023-02-28T05:22:37;-3275.60;70.00
23633;DHT22;11993;48.748;9.166;2023-02-28T05:25:04;-3275.50;70.50
23633;DHT22;11993;48.748;9.166;2023-02-28T05:27:32;-3275.60;70.50
23633;DHT22;11993;48.748;9.166;2023-02-28T05:29:59;-3275.70;70.30
23633;DHT22;11993;48.748;9.166;2023-02-28T05:32:24;-3275.80;69.80
23633;DHT22;11993;48.748;9.166;2023-02-28T05:34:50;-3275.80;69.70
23633;DHT22;11993;48.748;9.166;2023-02-28T05:37:16;-3276.00;69.50
23633;DHT22;11993;48.748;9.166;2023-02-28T05:39:42;-3275.80;69.70
23633;DHT22;11993;48.748;9.166;2023-02-28T05:42:08;-3275.80;70.00
23633;DHT22;11993;48.748;9.166;2023-02-28T05:44:34;-3275.80;69.80
23633;DHT22;11993;48.748;9.166;2023-02-28T05:47:00;-3276.00;70.00
23633;DHT22;11993;48.748;9.166;2023-02-28T05:49:26;-3275.80;70.10
23633;DHT22;11993;48.748;9.166;2023-02-28T05:51:51;-3275.80;70.20
23633;DHT22;11993;48.748;9.166;2023-02-28T05:54:17;-3276.00;70.30
23633;DHT22;11993;48.748;9.166;2023-02-28T05:56:42;-3276.00;69.80
23633;DHT22;11993;48.748;9.166;2023-02-28T05:59:11;-3275.90;69.80
23633;DHT22;11993;48.748;9.166;2023-02-28T06:01:42;-3275.80;70.10
23633;DHT22;11993;48.748;9.166;2023-02-28T06:04:13;-3275.80;70.60
23633;DHT22;11993;48.748;9.166;2023-02-28T06:06:43;-3275.80;70.30
23633;DHT22;11993;48.748;9.166;2023-02-28T06:09:10;-3275.90;70.40
23633;DHT22;11993;48.748;9.166;2023-02-28T06:11:36;-3275.80;71.20
23633;DHT22;11993;48.748;9.166;2023-02-28T06:14:03;-3275.80;70.90
23633;DHT22;11993;48.748;9.166;2023-02-28T06:16:32;-3275.70;70.60
23633;DHT22;11993;48.748;9.166;2023-02-28T06:18:59;-3275.80;70.90
23633;DHT22;11993;48.748;9.166;2023-02-28T06:21:26;-3275.80;70.90
23633;DHT22;11993;48.748;9.166;2023-02-28T06:23:53;-3275.80;71.00
23633;DHT22;11993;48.748;9.166;2023-02-28T06:26:19;-3275.70;71.10
23633;DHT22;11993;48.748;9.166;2023-02-28T06:28:45;-3275.80;71.30
23633;DHT22;11993;48.748;9.166;2023-02-28T06:31:13;-3276.00;70.90
23633;DHT22;11993;48.748;9.166;2023-02-28T06:33:41;-3275.80;71.00
23633;DHT22;11993;48.748;9.166;2023-02-28T06:36:09;-3275.90;70.70
23633;DHT22;11993;48.748;9.166;2023-02-28T06:38:36;-3275.90;71.10
23633;DHT22;11993;48.748;9.166;2023-02-28T06:41:03;-3275.90;71.00
23633;DHT22;11993;48.748;9.166;2023-02-28T06:43:32;-3276.00;70.20
23633;DHT22;11993;48.748;9.166;2023-02-28T06:45:59;-3275.80;70.70
23633;DHT22;11993;48.748;9.166;2023-02-28T06:48:26;-3275.80;70.60
23633;DHT22;11993;48.748;9.166;2023-02-28T06:50:52;-3276.00;69.70
23633;DHT22;11993;48.748;9.166;2023-02-28T06:53:17;-3276.10;69.40
23633;DHT22;11993;48.748;9.166;2023-02-28T06:55:43;-3276.10;69.10
23633;DHT22;11993;48.748;9.166;2023-02-28T06:58:09;-3275.90;69.00
23633;DHT22;11993;48.748;9.166;2023-02-28T07:00:42;-3275.90;69.40
23633;DHT22;11993;48.748;9.166;2023-02-28T07:03:08;-3276.00;68.90
23633;DHT22;11993;48.748;9.166;2023-02-28T07:05:53;-3276.00;68.90
23633;DHT22;11993;48.748;9.166;2023-02-28T07:08:22;-3276.00;69.00
23633;DHT22;11993;48.748;9.166;2023-02-28T07:10:52;-3276.00;68.60
23633;DHT22;11993;48.748;9.166;2023-02-28T07:13:18;-3276.00;68.70
23633;DHT22;11993;48.748;9.166;2023-02-28T07:15:43;-3276.00;68.70
23633;DHT22;11993;48.748;9.166;2023-02-28T07:18:09;-3276.00;68.60
23633;DHT22;11993;48.748;9.166;2023-02-28T07:20:35;-3276.10;69.20
23633;DHT22;11993;48.748;9.166;2023-02-28T07:23:00;-3276.10;68.70
23633;DHT22;11993;48.748;9.166;2023-02-28T07:25:27;-3276.00;68.90
23633;DHT22;11993;48.748;9.166;2023-02-28T07:27:54;-3276.10;68.70
23633;DHT22;11993;48.748;9.166;2023-02-28T07:30:20;-3276.20;67.70
23633;DHT22;11993;48.748;9.166;2023-02-28T07:32:46;-3276.00;67.90
23633;DHT22;11993;48.748;9.166;2023-02-28T07:35:12;-3276.00;68.20
23633;DHT22;11993;48.748;9.166;2023-02-28T07:37:37;-3276.00;67.90
23633;DHT22;11993;48.748;9.166;2023-02-28T07:40:09;-3276.00;68.40
23633;DHT22;11993;48.748;9.166;2023-02-28T07:42:35;-3276.00;68.20
23633;DHT22;11993;48.748;9.166;2023-02-28T07:45:01;-3276.10;67.90
23633;DHT22;11993;48.748;9.166;2023-02-28T07:47:30;-3276.20;67.40
23633;DHT22;11993;48.748;9.166;2023-02-28T07:49:56;-3276.10;67.70
23633;DHT22;11993;48.748;9.166;2023-02-28T07:52:21;-3276.20;67.30
23633;DHT22;11993;48.748;9.166;2023-02-28T07:54:49;-3276.30;66.80
23633;DHT22;11993;48.748;9.166;2023-02-28T07:57:15;-3276.00;67.80
23633;DHT22;11993;48.748;9.166;2023-02-28T07:59:41;-3276.00;67.90
23633;DHT22;11993;48.748;9.166;2023-02-28T08:02:13;-3276.20;67.40
23633;DHT22;11993;48.748;9.166;2023-02-28T08:04:39;-3276.20;67.40
23633;DHT22;11993;48.748;9.166;2023-02-28T08:07:05;-3276.40;67.30
23633;DHT22;11993;48.748;9.166;2023-02-28T08:09:31;-3276.60;67.00
23633;DHT22;11993;48.748;9.166;2023-02-28T08:11:56;-3276.60;66.60
23633;DHT22;11993;48.748;9.166;2023-02-28T08:14:22;-3276.60;65.80
23633;DHT22;11993;48.748;9.166;2023-02-28T08:16:48;-3276.50;66.30
23633;DHT22;11993;48.748;9.166;2023-02-28T08:19:13;-3276.40;66.60
23633;DHT22;11993;48.748;9.166;2023-02-28T08:21:39;-3276.30;66.70
23633;DHT22;11993;48.748;9.166;2023-02-28T08:24:05;-3276.30;66.70
23633;DHT22;11993;48.748;9.166;2023-02-28T08:26:31;-3276.30;66.70
23633;DHT22;11993;48.748;9.166;2023-02-28T08:28:57;-3276.30;66.60
23633;DHT22;11993;48.748;9.166;2023-02-28T08:31:22;-3276.30;67.40
23633;DHT22;11993;48.748;9.166;2023-02-28T08:33:48;-3276.30;67.10
23633;DHT22;11993;48.748;9.166;2023-02-28T08:36:16;-3276.20;66.90
23633;DHT22;11993;48.748;9.166;2023-02-28T08:38:41;-3276.20;67.40
23633;DHT22;11993;48.748;9.166;2023-02-28T08:41:09;-3276.30;66.90
23633;DHT22;11993;48.748;9.166;2023-02-28T08:43:36;-3276.40;67.00
23633;DHT22;11993;48.748;9.166;2023-02-28T08:46:02;-3276.40;66.80
23633;DHT22;11993;48.748;9.166;2023-02-28T08:48:30;-3276.40;66.70
23633;DHT22;11993;48.748;9.166;2023-02-28T08:53:22;-3276.50;67.20
23633;DHT22;11993;48.748;9.166;2023-02-28T08:56:16;-3276.70;66.90
23633;DHT22;11993;48.748;9.166;2023-02-28T08:58:43;-3276.50;66.50
23633;DHT22;11993;48.748;9.166;2023-02-28T09:01:11;-3276.60;66.30
23633;DHT22;11993;48.748;9.166;2023-02-28T09:03:37;-3276.70;66.10
23633;DHT22;11993;48.748;9.166;2023-02-28T09:06:03;-3276.60;65.80
23633;DHT22;11993;48.748;9.166;2023-02-28T09:08:30;-3276.60;66.20
23633;DHT22;11993;48.748;9.166;2023-02-28T09:10:56;-3276.60;65.70
23633;DHT22;11993;48.748;9.166;2023-02-28T09:13:24;-3276.60;66.30
23633;DHT22;11993;48.748;9.166;2023-02-28T09:15:50;-3276.50;66.50
23633;DHT22;11993;48.748;9.166;2023-02-28T09:18:16;-3276.60;66.50
23633;DHT22;11993;48.748;9.166;2023-02-28T09:20:42;-3276.60;66.00
23633;DHT22;11993;48.748;9.166;2023-02-28T09:23:10;0.00;65.60
23633;DHT22;11993;48.748;9.166;2023-02-28T09:25:37;0.00;65.50
23633;DHT22;11993;48.748;9.166;2023-02-28T09:28:06;-3276.70;65.50
23633;DHT22;11993;48.748;9.166;2023-02-28T09:30:32;0.00;65.40
23633;DHT22;11993;48.748;9.166;2023-02-28T09:32:57;-3276.70;65.50
23633;DHT22;11993;48.748;9.166;2023-02-28T09:35:24;0.00;65.20
23633;DHT22;11993;48.748;9.166;2023-02-28T09:37:52;0.00;64.90
23633;DHT22;11993;48.748;9.166;2023-02-28T09:40:20;0.10;64.60
23633;DHT22;11993;48.748;9.166;2023-02-28T09:42:48;0.00;65.00
23633;DHT22;11993;48.748;9.166;2023-02-28T09:45:36;0.10;64.70
23633;DHT22;11993;48.748;9.166;2023-02-28T09:48:14;0.10;64.70
23633;DHT22;11993;48.748;9.166;2023-02-28T09:50:48;0.20;64.40
23633;DHT22;11993;48.748;9.166;2023-02-28T09:53:30;0.30;63.70
23633;DHT22;11993;48.748;9.166;2023-02-28T09:56:10;0.40;63.70
23633;DHT22;11993;48.748;9.166;2023-02-28T09:58:45;0.40;63.60
23633;DHT22;11993;48.748;9.166;2023-02-28T10:01:39;0.60;63.20
23633;DHT22;11993;48.748;9.166;2023-02-28T10:06:58;0.40;63.50
23633;DHT22;11993;48.748;9.166;2023-02-28T10:09:33;0.50;63.40
23633;DHT22;11993;48.748;9.166;2023-02-28T10:12:04;0.40;62.90
23633;DHT22;11993;48.748;9.166;2023-02-28T10:14:32;0.50;63.20
23633;DHT22;11993;48.748;9.166;2023-02-28T10:17:07;0.60;63.50
23633;DHT22;11993;48.748;9.166;2023-02-28T10:23:02;0.70;62.00
23633;DHT22;11993;48.748;9.166;2023-02-28T10:25:34;0.70;62.50
23633;DHT22;11993;48.748;9.166;2023-02-28T10:28:15;0.90;62.30
23633;DHT22;11993;48.748;9.166;2023-02-28T10:30:47;0.70;61.90
23633;DHT22;11993;48.748;9.166;2023-02-28T10:33:33;0.60;62.40
23633;DHT22;11993;48.748;9.166;2023-02-28T10:35:59;0.60;62.70
23633;DHT22;11993;48.748;9.166;2023-02-28T10:38:37;0.80;61.90
23633;DHT22;11993;48.748;9.166;2023-02-28T10:43:29;0.90;61.40
23633;DHT22;11993;48.748;9.166;2023-02-28T10:48:26;1.30;61.20
23633;DHT22;11993;48.748;9.166;2023-02-28T10:50:54;1.50;60.30
23633;DHT22;11993;48.748;9.166;2023-02-28T10:55:59;1.40;60.30
23633;DHT22;11993;48.748;9.166;2023-02-28T10:58:29;1.40;59.50
23633;DHT22;11993;48.748;9.166;2023-02-28T11:00:55;1.60;59.10
23633;DHT22;11993;48.748;9.166;2023-02-28T11:03:29;1.80;58.30
23633;DHT22;11993;48.748;9.166;2023-02-28T11:05:56;2.00;57.50
23633;DHT22;11993;48.748;9.166;2023-02-28T11:08:22;2.20;57.10
23633;DHT22;11993;48.748;9.166;2023-02-28T11:10:54;2.20;57.30
23633;DHT22;11993;48.748;9.166;2023-02-28T11:13:24;2.20;57.40
23633;DHT22;11993;48.748;9.166;2023-02-28T11:15:55;2.60;56.60
23633;DHT22;11993;48.748;9.166;2023-02-28T11:18:27;2.50;56.70
23633;DHT22;11993;48.748;9.166;2023-02-28T11:20:56;2.40;57.00
23633;DHT22;11993;48.748;9.166;2023-02-28T11:23:25;3.00;56.20
23633;DHT22;11993;48.748;9.166;2023-02-28T11:25:55;3.10;55.30
23633;DHT22;11993;48.748;9.166;2023-02-28T11:28:40;3.20;54.80
23633;DHT22;11993;48.748;9.166;2023-02-28T11:36:36;3.50;53.40
23633;DHT22;11993;48.748;9.166;2023-02-28T11:39:11;4.20;52.20
23633;DHT22;11993;48.748;9.166;2023-02-28T11:41:40;4.90;49.80
23633;DHT22;11993;48.748;9.166;2023-02-28T11:44:34;5.40;49.20
23633;DHT22;11993;48.748;9.166;2023-02-28T11:47:19;5.00;50.10
23633;DHT22;11993;48.748;9.166;2023-02-28T11:52:58;6.40;46.40
23633;DHT22;11993;48.748;9.166;2023-02-28T11:55:43;7.00;45.30
23633;DHT22;11993;48.748;9.166;2023-02-28T11:58:33;7.20;45.00
23633;DHT22;11993;48.748;9.166;2023-02-28T12:07:04;7.70;43.40
23633;DHT22;11993;48.748;9.166;2023-02-28T12:12:35;7.60;43.50
23633;DHT22;11993;48.748;9.166;2023-02-28T12:15:24;7.60;43.40
23633;DHT22;11993;48.748;9.166;2023-02-28T12:23:54;8.60;39.70
23633;DHT22;11993;48.748;9.166;2023-02-28T12:26:42;9.40;39.20
23633;DHT22;11993;48.748;9.166;2023-02-28T12:29:19;9.40;39.60
23633;DHT22;11993;48.748;9.166;2023-02-28T12:32:01;9.70;38.20
23633;DHT22;11993;48.748;9.166;2023-02-28T12:34:39;9.60;39.10
23633;DHT22;11993;48.748;9.166;2023-02-28T12:37:12;10.20;37.60
23633;DHT22;11993;48.748;9.166;2023-02-28T12:39:45;10.70;36.50
23633;DHT22;11993;48.748;9.166;2023-02-28T12:42:22;10.20;37.10
23633;DHT22;11993;48.748;9.166;2023-02-28T12:45:01;9.10;38.70
23633;DHT22;11993;48.748;9.166;2023-02-28T12:47:27;9.40;39.30
23633;DHT22;11993;48.748;9.166;2023-02-28T12:50:03;9.30;39.30
23633;DHT22;11993;48.748;9.166;2023-02-28T12:56:04;9.40;39.30
23633;DHT22;11993;48.748;9.166;2023-02-28T13:09:56;8.90;39.40
23633;DHT22;11993;48.748;9.166;2023-02-28T13:12:23;8.90;37.50
23633;DHT22;11993;48.748;9.166;2023-02-28T13:14:50;9.60;38.10
23633;DHT22;11993;48.748;9.166;2023-02-28T13:17:20;9.10;38.70
23633;DHT22;11993;48.748;9.166;2023-02-28T13:22:36;10.10;37.90
23633;DHT22;11993;48.748;9.166;2023-02-28T13:27:51;9.80;37.80
23633;DHT22;11993;48.748;9.166;2023-02-28T13:38:45;9.60;38.30
23633;DHT22;11993;48.748;9.166;2023-02-28T13:44:03;11.10;36.40
23633;DHT22;11993;48.748;9.166;2023-02-28T13:46:29;10.70;37.10
23633;DHT22;11993;48.748;9.166;2023-02-28T13:48:55;10.60;37.30
23633;DHT22;11993;48.748;9.166;2023-02-28T13:51:43;10.80;36.60
23633;DHT22;11993;48.748;9.166;2023-02-28T14:05:22;10.40;37.10
23633;DHT22;11993;48.748;9.166;2023-02-28T14:07:56;10.90;36.10
23633;DHT22;11993;48.748;9.166;2023-02-28T14:10:46;11.10;36.00
23633;DHT22;11993;48.748;9.166;2023-02-28T14:16:10;10.60;35.60
23633;DHT22;11993;48.748;9.166;2023-02-28T14:18:41;11.10;35.80
23633;DHT22;11993;48.748;9.166;2023-02-28T14:32:17;11.60;34.00
23633;DHT22;11993;48.748;9.166;2023-02-28T14:37:19;11.30;35.20
23633;DHT22;11993;48.748;9.166;2023-02-28T14:39:46;11.20;35.50
23633;DHT22;11993;48.748;9.166;2023-02-28T14:42:35;11.10;35.40
23633;DHT22;11993;48.748;9.166;2023-02-28T14:45:03;10.80;35.70
23633;DHT22;11993;48.748;9.166;2023-02-28T14:47:31;10.10;36.80
23633;DHT22;11993;48.748;9.166;2023-02-28T14:49:59;10.70;36.10
23633;DHT22;11993;48.748;9.166;2023-02-28T14:52:28;10.50;36.30
23633;DHT22;11993;48.748;9.166;2023-02-28T14:55:05;10.60;36.30
23633;DHT22;11993;48.748;9.166;2023-02-28T14:57:38;10.60;35.60
23633;DHT22;11993;48.748;9.166;2023-02-28T15:00:20;10.30;36.80
23633;DHT22;11993;48.748;9.166;2023-02-28T15:02:46;10.40;36.40
23633;DHT22;11993;48.748;9.166;2023-02-28T15:07:38;10.10;36.60
23633;DHT22;11993;48.748;9.166;2023-02-28T15:10:16;10.20;36.50
23633;DHT22;11993;48.748;9.166;2023-02-28T15:12:50;9.60;38.20
23633;DHT22;11993;48.748;9.166;2023-02-28T15:15:18;9.20;38.70
23633;DHT22;11993;48.748;9.166;2023-02-28T15:17:52;9.30;38.40
23633;DHT22;11993;48.748;9.166;2023-02-28T15:20:21;9.00;38.80
23633;DHT22;11993;48.748;9.166;2023-02-28T15:22:49;9.50;38.60
23633;DHT22;11993;48.748;9.166;2023-02-28T15:25:19;9.40;38.80
23633;DHT22;11993;48.748;9.166;2023-02-28T15:27:49;8.90;39.10
23633;DHT22;11993;48.748;9.166;2023-02-28T15:30:20;8.70;39.60
23633;DHT22;11993;48.748;9.166;2023-02-28T15:33:07;8.10;40.10
23633;DHT22;11993;48.748;9.166;2023-02-28T15:35:42;8.40;40.20
23633;DHT22;11993;48.748;9.166;2023-02-28T15:38:24;8.30;40.40
23633;DHT22;11993;48.748;9.166;2023-02-28T15:40:53;8.60;39.90
23633;DHT22;11993;48.748;9.166;2023-02-28T15:43:31;8.70;39.40
23633;DHT22;11993;48.748;9.166;2023-02-28T15:46:01;8.60;40.00
23633;DHT22;11993;48.748;9.166;2023-02-28T15:48:30;8.60;39.60
23633;DHT22;11993;48.748;9.166;2023-02-28T15:53:58;8.30;40.60
23633;DHT22;11993;48.748;9.166;2023-02-28T15:56:30;8.70;40.20
23633;DHT22;11993;48.748;9.166;2023-02-28T15:59:05;8.20;40.90
23633;DHT22;11993;48.748;9.166;2023-02-28T16:01:33;8.10;41.10
23633;DHT22;11993;48.748;9.166;2023-02-28T16:04:03;7.70;41.80
23633;DHT22;11993;48.748;9.166;2023-02-28T16:06:37;7.70;42.10
23633;DHT22;11993;48.748;9.166;2023-02-28T16:09:05;8.00;42.10
23633;DHT22;11993;48.748;9.166;2023-02-28T16:11:34;8.10;41.40
23633;DHT22;11993;48.748;9.166;2023-02-28T16:14:00;8.00;42.00
23633;DHT22;11993;48.748;9.166;2023-02-28T16:16:26;7.80;42.30
23633;DHT22;11993;48.748;9.166;2023-02-28T16:18:52;7.80;42.40
23633;DHT22;11993;48.748;9.166;2023-02-28T16:21:18;7.70;42.50
23633;DHT22;11993;48.748;9.166;2023-02-28T16:23:43;7.20;43.60
23633;DHT22;11993;48.748;9.166;2023-02-28T16:26:18;6.80;44.30
23633;DHT22;11993;48.748;9.166;2023-02-28T16:28:45;6.20;45.60
23633;DHT22;11993;48.748;9.166;2023-02-28T16:31:11;6.00;46.60
23633;DHT22;11993;48.748;9.166;2023-02-28T16:33:42;5.90;46.90
23633;DHT22;11993;48.748;9.166;2023-02-28T16:36:12;6.00;47.00
23633;DHT22;11993;48.748;9.166;2023-02-28T16:38:38;6.00;46.90
23633;DHT22;11993;48.748;9.166;2023-02-28T16:41:05;5.60;48.10
23633;DHT22;11993;48.748;9.166;2023-02-28T16:43:31;5.50;47.80
23633;DHT22;11993;48.748;9.166;2023-02-28T16:45:58;5.50;48.20
23633;DHT22;11993;48.748;9.166;2023-02-28T16:48:24;5.20;50.00
23633;DHT22;11993;48.748;9.166;2023-02-28T16:50:51;5.10;49.80
23633;DHT22;11993;48.748;9.166;2023-02-28T16:53:17;5.10;49.50
23633;DHT22;11993;48.748;9.166;2023-02-28T16:55:42;4.90;49.70
23633;DHT22;11993;48.748;9.166;2023-02-28T16:58:14;4.90;49.60
23633;DHT22;11993;48.748;9.166;2023-02-28T17:00:40;4.90;49.70
23633;DHT22;11993;48.748;9.166;2023-02-28T17:03:13;4.90;49.70
23633;DHT22;11993;48.748;9.166;2023-02-28T17:05:41;4.70;50.10
23633;DHT22;11993;48.748;9.166;2023-02-28T17:08:08;4.90;50.10
23633;DHT22;11993;48.748;9.166;2023-02-28T17:10:33;5.00;49.70
23633;DHT22;11993;48.748;9.166;2023-02-28T17:12:59;5.00;49.80
23633;DHT22;11993;48.748;9.166;2023-02-28T17:15:25;4.70;50.10
23633;DHT22;11993;48.748;9.166;2023-02-28T17:17:50;4.70;50.70
23633;DHT22;11993;48.748;9.166;2023-02-28T17:20:19;4.80;50.60
23633;DHT22;11993;48.748;9.166;2023-02-28T17:22:48;4.60;50.70
23633;DHT22;11993;48.748;9.166;2023-02-28T17:25:14;4.60;50.80
23633;DHT22;11993;48.748;9.166;2023-02-28T17:27:39;4.70;50.60
23633;DHT22;11993;48.748;9.166;2023-02-28T17:30:26;4.70;50.50
23633;DHT22;11993;48.748;9.166;2023-02-28T17:32:53;4.60;50.70
23633;DHT22;11993;48.748;9.166;2023-02-28T17:35:18;4.40;51.00
23633;DHT22;11993;48.748;9.166;2023-02-28T17:37:44;4.20;51.50
23633;DHT22;11993;48.748;9.166;2023-02-28T17:40:14;4.10;51.80